createdAt,value
2023-04-21T00:02:35.787Z,13.04
2023-04-21T00:05:10.761Z,13.02
2023-04-21T00:07:43.641Z,13.00
2023-04-21T00:10:15.985Z,12.96
2023-04-21T00:12:48.391Z,12.96
2023-04-21T00:15:20.727Z,12.95
2023-04-21T00:17:53.154Z,12.92
2023-04-21T00:20:28.835Z,12.89
2023-04-21T00:23:01.653Z,12.86
2023-04-21T00:25:34.110Z,12.83
2023-04-21T00:28:06.391Z,12.78
2023-04-21T00:30:42.524Z,12.74
2023-04-21T00:33:14.869Z,12.71
2023-04-21T00:35:47.341Z,12.70
2023-04-21T00:38:19.715Z,12.67
2023-04-21T00:40:51.946Z,12.63
2023-04-21T00:43:25.826Z,12.59
2023-04-21T00:46:00.033Z,12.58
2023-04-21T00:48:32.384Z,12.57
2023-04-21T00:51:05.155Z,12.55
2023-04-21T00:53:37.535Z,12.53
2023-04-21T00:56:10.963Z,12.50
2023-04-21T00:58:46.643Z,12.48
2023-04-21T01:01:19.579Z,12.46
2023-04-21T01:03:52.102Z,12.43
2023-04-21T01:06:24.674Z,12.40
2023-04-21T01:08:58.089Z,12.37
2023-04-21T01:11:30.948Z,12.36
2023-04-21T01:14:03.334Z,12.33
2023-04-21T01:16:35.761Z,12.29
2023-04-21T01:19:08.191Z,12.25
2023-04-21T01:21:43.281Z,12.21
2023-04-21T01:24:15.860Z,12.19
2023-04-21T01:26:49.668Z,12.18
2023-04-21T01:29:22.005Z,12.18
2023-04-21T01:31:54.524Z,12.15
2023-04-21T01:34:26.785Z,12.13
2023-04-21T01:36:59.093Z,12.13
2023-04-21T01:39:31.814Z,12.13
2023-04-21T01:42:04.161Z,12.12
2023-04-21T01:44:36.969Z,12.11
2023-04-21T01:47:09.808Z,12.08
2023-04-21T01:49:42.144Z,12.06
2023-04-21T01:52:14.519Z,12.04
2023-04-21T01:54:46.878Z,12.02
2023-04-21T01:57:20.000Z,11.97
2023-04-21T01:59:52.415Z,11.96
2023-04-21T02:02:24.906Z,11.95
2023-04-21T02:04:57.679Z,11.94
2023-04-21T02:07:30.038Z,11.93
2023-04-21T02:10:02.430Z,11.91
2023-04-21T02:12:34.880Z,11.91
2023-04-21T02:15:09.155Z,11.90
2023-04-21T02:17:43.017Z,11.88
2023-04-21T02:20:15.767Z,11.85
2023-04-21T02:22:48.193Z,11.83
2023-04-21T02:25:21.055Z,11.80
2023-04-21T02:27:53.252Z,11.77
2023-04-21T02:30:25.625Z,11.74
2023-04-21T02:32:58.000Z,11.71
2023-04-21T02:35:30.468Z,11.69
2023-04-21T02:38:07.332Z,11.68
2023-04-21T02:40:39.913Z,11.68
2023-04-21T02:43:12.859Z,11.66
2023-04-21T02:45:45.252Z,11.63
2023-04-21T02:48:20.938Z,11.60
2023-04-21T02:50:54.247Z,11.58
2023-04-21T02:53:26.867Z,11.56
2023-04-21T02:55:59.288Z,11.55
2023-04-21T02:58:31.576Z,11.52
2023-04-21T03:01:04.300Z,11.50
2023-04-21T03:03:37.158Z,11.45
2023-04-21T03:06:09.941Z,11.41
2023-04-21T03:08:42.444Z,11.38
2023-04-21T03:11:14.860Z,11.37
2023-04-21T03:13:47.278Z,11.35
2023-04-21T03:16:19.913Z,11.34
2023-04-21T03:18:52.162Z,11.33
2023-04-21T03:21:24.517Z,11.32
2023-04-21T03:23:57.124Z,11.30
2023-04-21T03:26:29.474Z,11.30
2023-04-21T03:29:03.467Z,11.30
2023-04-21T03:31:35.968Z,11.29
2023-04-21T03:34:08.469Z,11.29
2023-04-21T03:36:41.116Z,11.27
2023-04-21T03:41:51.635Z,11.21
2023-04-21T03:44:26.300Z,11.20
2023-04-21T03:46:59.200Z,11.21
2023-04-21T03:49:31.873Z,11.21
2023-04-21T03:52:04.216Z,11.21
2023-04-21T03:54:36.549Z,11.19
2023-04-21T03:57:08.936Z,11.19
2023-04-21T03:59:41.256Z,11.19
2023-04-21T04:02:13.632Z,11.19
2023-04-21T04:04:46.268Z,11.20
2023-04-21T04:07:18.800Z,11.17
2023-04-21T04:09:51.127Z,11.14
2023-04-21T04:12:23.386Z,11.12
2023-04-21T04:14:55.679Z,11.12
2023-04-21T04:17:27.972Z,11.12
2023-04-21T04:20:00.392Z,11.12
2023-04-21T04:22:33.883Z,11.12
2023-04-21T04:25:07.281Z,11.11
2023-04-21T04:27:39.663Z,11.10
2023-04-21T04:30:14.871Z,11.11
2023-04-21T04:32:47.210Z,11.12
2023-04-21T04:35:19.814Z,11.13
2023-04-21T04:37:52.352Z,11.15
2023-04-21T04:40:24.830Z,11.17
2023-04-21T04:42:57.181Z,11.19
2023-04-21T04:45:33.290Z,11.22
2023-04-21T04:48:05.944Z,11.25
2023-04-21T04:50:38.187Z,11.28
2023-04-21T04:53:10.437Z,11.30
2023-04-21T04:55:42.903Z,11.34
2023-04-21T04:58:15.665Z,11.37
2023-04-21T05:00:48.196Z,11.41
2023-04-21T05:03:20.805Z,11.44
2023-04-21T05:05:54.374Z,11.47
2023-04-21T05:08:26.748Z,11.52
2023-04-21T05:10:59.141Z,11.60
2023-04-21T05:13:31.502Z,11.68
2023-04-21T05:16:04.132Z,11.77
2023-04-21T05:18:36.359Z,11.85
2023-04-21T05:21:08.864Z,11.94
2023-04-21T05:23:41.148Z,12.06
2023-04-21T05:26:13.499Z,12.16
2023-04-21T05:28:45.757Z,12.28
2023-04-21T05:31:18.177Z,12.39
2023-04-21T05:33:50.472Z,12.52
2023-04-21T05:36:25.001Z,12.65
2023-04-21T05:38:57.454Z,12.79
2023-04-21T05:41:29.781Z,12.90
2023-04-21T05:44:01.993Z,13.00
2023-04-21T05:46:35.216Z,13.11
2023-04-21T05:49:07.612Z,13.24
2023-04-21T05:51:39.864Z,13.35
2023-04-21T05:54:12.128Z,13.47
2023-04-21T05:56:44.575Z,13.57
2023-04-21T05:59:17.075Z,13.67
2023-04-21T06:01:49.388Z,13.77
2023-04-21T06:04:22.227Z,13.89
2023-04-21T06:06:55.016Z,14.00
2023-04-21T06:09:27.343Z,14.10
2023-04-21T06:11:59.775Z,14.19
2023-04-21T06:14:32.147Z,14.28
2023-04-21T06:17:04.601Z,14.38
2023-04-21T06:19:41.866Z,14.48
2023-04-21T06:22:14.305Z,14.55
2023-04-21T06:24:46.628Z,14.65
2023-04-21T06:27:19.227Z,14.77
2023-04-21T06:29:55.396Z,14.90
2023-04-21T06:32:28.013Z,15.02
2023-04-21T06:35:00.319Z,15.11
2023-04-21T06:37:32.676Z,15.23
2023-04-21T06:40:05.805Z,15.37
2023-04-21T06:42:38.187Z,15.48
2023-04-21T06:45:12.243Z,15.61
2023-04-21T06:47:44.556Z,15.72
2023-04-21T06:50:17.047Z,15.86
2023-04-21T06:52:49.468Z,16.01
2023-04-21T06:55:21.941Z,16.15
2023-04-21T06:57:54.184Z,16.29
2023-04-21T07:00:26.682Z,16.42
2023-04-21T07:02:59.009Z,16.54
2023-04-21T07:05:31.641Z,16.66
2023-04-21T07:08:03.983Z,16.77
2023-04-21T07:10:36.393Z,16.90
2023-04-21T07:13:10.192Z,17.00
2023-04-21T07:15:42.586Z,17.12
2023-04-21T07:18:14.866Z,17.24
2023-04-21T07:20:47.459Z,17.33
2023-04-21T07:23:20.202Z,17.46
2023-04-21T07:25:52.596Z,17.57
2023-04-21T07:28:24.982Z,17.69
2023-04-21T07:30:57.374Z,17.83
2023-04-21T07:33:30.034Z,17.93
2023-04-21T07:36:02.434Z,18.02
2023-04-21T07:38:35.185Z,18.10
2023-04-21T07:41:07.540Z,18.19
2023-04-21T07:43:40.187Z,18.25
2023-04-21T07:46:13.399Z,18.30
2023-04-21T07:48:46.471Z,18.39
2023-04-21T07:51:18.982Z,18.48
2023-04-21T07:53:51.755Z,18.58
2023-04-21T07:56:24.081Z,18.65
2023-04-21T07:58:56.365Z,18.71
2023-04-21T08:01:28.748Z,18.78
2023-04-21T08:04:01.235Z,18.88
2023-04-21T08:06:34.541Z,18.97
2023-04-21T08:09:06.998Z,19.01
2023-04-21T08:11:39.394Z,19.05
2023-04-21T08:14:12.019Z,19.09
2023-04-21T08:16:44.458Z,19.17
2023-04-21T08:19:16.971Z,19.24
2023-04-21T08:21:49.333Z,19.30
2023-04-21T08:24:21.880Z,19.36
2023-04-21T08:26:54.759Z,19.33
2023-04-21T08:29:27.127Z,19.31
2023-04-21T08:31:59.699Z,19.34
2023-04-21T08:34:32.251Z,19.36
2023-04-21T08:37:04.605Z,19.43
2023-04-21T08:39:37.008Z,19.54
2023-04-21T08:42:11.189Z,19.63
2023-04-21T08:44:44.165Z,19.72
2023-04-21T08:47:17.290Z,19.80
2023-04-21T08:49:51.448Z,19.86
2023-04-21T08:52:23.793Z,19.92
2023-04-21T08:54:56.426Z,19.95
2023-04-21T08:57:28.725Z,20.03
2023-04-21T09:00:00.978Z,20.07
2023-04-21T09:02:33.396Z,20.13
2023-04-21T09:05:06.649Z,20.13
2023-04-21T09:07:41.557Z,20.08
2023-04-21T09:10:12.325Z,20.11
2023-04-21T09:12:51.406Z,20.18
2023-04-21T09:15:24.998Z,20.26
2023-04-21T09:17:58.915Z,20.35
2023-04-21T09:20:31.518Z,20.45
2023-04-21T09:23:07.549Z,20.52
2023-04-21T09:25:41.617Z,20.61
2023-04-21T09:28:15.279Z,20.65
2023-04-21T09:30:48.470Z,20.70
2023-04-21T09:33:30.709Z,20.77
2023-04-21T09:36:06.451Z,20.90
2023-04-21T09:38:38.743Z,21.03
2023-04-21T09:41:11.091Z,21.11
2023-04-21T09:43:43.361Z,21.18
2023-04-21T09:46:17.413Z,21.23
2023-04-21T09:48:50.201Z,21.31
2023-04-21T09:51:37.344Z,21.35
2023-04-21T09:54:29.197Z,21.44
2023-04-21T09:57:05.072Z,21.52
2023-04-21T09:59:38.902Z,21.53
2023-04-21T10:02:13.578Z,21.57
2023-04-21T10:04:46.981Z,21.61
2023-04-21T10:07:19.443Z,21.66
2023-04-21T10:09:54.819Z,21.71
2023-04-21T10:12:28.541Z,21.77
2023-04-21T10:15:04.758Z,21.78
2023-04-21T10:17:38.420Z,21.79
2023-04-21T10:20:16.654Z,21.83
2023-04-21T10:22:59.794Z,21.86
2023-04-21T10:25:33.526Z,21.92
2023-04-21T10:28:09.504Z,21.97
2023-04-21T10:30:42.018Z,22.01
2023-04-21T10:33:18.741Z,22.06
2023-04-21T10:36:05.540Z,22.14
2023-04-21T10:38:45.169Z,22.15
2023-04-21T10:41:31.651Z,22.18
2023-04-21T10:44:13.298Z,22.24
2023-04-21T10:46:49.979Z,22.33
2023-04-21T10:49:26.944Z,22.42
2023-04-21T10:52:12.335Z,22.47
2023-04-21T10:55:05.523Z,22.50
2023-04-21T10:57:38.105Z,22.55
2023-04-21T11:00:15.760Z,22.60
2023-04-21T11:02:56.655Z,22.64
2023-04-21T11:05:36.434Z,22.70
2023-04-21T11:08:14.727Z,22.77
2023-04-21T11:10:53.989Z,22.78
2023-04-21T11:13:27.668Z,22.78
2023-04-21T11:16:04.980Z,22.82
2023-04-21T11:18:40.572Z,22.80
2023-04-21T11:21:22.127Z,22.78
2023-04-21T11:23:59.140Z,22.71
2023-04-21T11:26:37.875Z,22.68
2023-04-21T11:29:11.788Z,22.70
2023-04-21T11:31:46.718Z,22.63
2023-04-21T11:34:21.674Z,22.68
2023-04-21T11:36:54.548Z,22.74
2023-04-21T11:39:26.842Z,22.78
2023-04-21T11:41:59.296Z,22.92
2023-04-21T11:44:37.001Z,23.00
2023-04-21T11:47:20.070Z,23.04
2023-04-21T11:49:56.575Z,23.08
2023-04-21T11:52:30.970Z,23.14
2023-04-21T11:55:06.376Z,23.17
2023-04-21T11:57:40.894Z,23.18
2023-04-21T12:00:13.513Z,23.14
2023-04-21T12:02:46.262Z,23.17
2023-04-21T12:05:18.721Z,23.18
2023-04-21T12:07:52.367Z,23.16
2023-04-21T12:10:24.611Z,23.15
2023-04-21T12:12:58.818Z,23.13
2023-04-21T12:15:32.633Z,23.20
2023-04-21T12:18:05.186Z,23.25
2023-04-21T12:20:37.921Z,23.28
2023-04-21T12:23:10.353Z,23.28
2023-04-21T12:25:42.746Z,23.31
2023-04-21T12:28:16.937Z,23.31
2023-04-21T12:30:49.209Z,23.29
2023-04-21T12:33:21.784Z,23.27
2023-04-21T12:35:54.234Z,23.27
2023-04-21T12:38:26.636Z,23.25
2023-04-21T12:40:58.940Z,23.14
2023-04-21T12:43:32.678Z,23.11
2023-04-21T12:46:05.176Z,23.10
2023-04-21T12:48:37.704Z,23.07
2023-04-21T12:51:10.182Z,23.05
2023-04-21T12:53:42.543Z,23.06
2023-04-21T12:56:14.990Z,23.04
2023-04-21T12:58:48.429Z,23.06
2023-04-21T13:01:22.526Z,23.09
2023-04-21T13:03:55.149Z,23.08
2023-04-21T13:06:28.158Z,23.03
2023-04-21T13:09:00.607Z,22.97
2023-04-21T13:11:33.082Z,22.95
2023-04-21T13:14:05.457Z,22.95
2023-04-21T13:16:37.964Z,22.86
2023-04-21T13:19:10.418Z,22.72
2023-04-21T13:21:42.718Z,22.70
2023-04-21T13:24:15.145Z,22.69
2023-04-21T13:26:47.459Z,22.71
2023-04-21T13:29:19.795Z,22.74
2023-04-21T13:31:52.140Z,22.75
2023-04-21T13:34:24.973Z,22.72
2023-04-21T13:36:57.941Z,22.60
2023-04-21T13:39:30.575Z,22.47
2023-04-21T13:42:03.268Z,22.39
2023-04-21T13:44:35.929Z,22.38
2023-04-21T13:47:09.376Z,22.38
2023-04-21T13:49:41.725Z,22.30
2023-04-21T13:52:14.111Z,22.22
2023-04-21T13:54:46.519Z,22.16
2023-04-21T13:57:18.892Z,22.04
2023-04-21T13:59:51.759Z,21.93
2023-04-21T14:02:25.870Z,21.85
2023-04-21T14:04:58.569Z,21.86
2023-04-21T14:07:31.515Z,21.90
2023-04-21T14:10:04.456Z,21.93
2023-04-21T14:12:36.876Z,21.96
2023-04-21T14:15:12.728Z,21.94
2023-04-21T14:17:45.164Z,21.92
2023-04-21T14:20:17.608Z,21.90
2023-04-21T14:22:49.845Z,21.84
2023-04-21T14:25:22.287Z,21.69
2023-04-21T14:27:55.032Z,21.65
2023-04-21T14:30:27.244Z,21.62
2023-04-21T14:32:59.634Z,21.57
2023-04-21T14:35:32.040Z,21.44
2023-04-21T14:38:04.430Z,21.43
2023-04-21T14:40:36.736Z,21.37
2023-04-21T14:43:11.519Z,21.31
2023-04-21T14:45:44.032Z,21.29
2023-04-21T14:48:16.539Z,21.27
2023-04-21T14:50:49.354Z,21.22
2023-04-21T14:53:21.639Z,21.19
2023-04-21T14:55:54.773Z,21.19
2023-04-21T14:58:27.305Z,21.14
2023-04-21T15:00:59.703Z,21.04
2023-04-21T15:03:33.338Z,21.02
2023-04-21T15:06:06.584Z,21.00
2023-04-21T15:08:40.011Z,21.00
2023-04-21T15:11:12.463Z,20.91
2023-04-21T15:13:44.727Z,20.86
2023-04-21T15:16:17.088Z,20.87
2023-04-21T15:18:49.439Z,20.88
2023-04-21T15:21:23.039Z,20.82
2023-04-21T15:23:55.315Z,20.75
2023-04-21T15:26:30.420Z,20.69
2023-04-21T15:29:02.731Z,20.61
2023-04-21T15:31:35.412Z,20.52
2023-04-21T15:34:07.979Z,20.51
2023-04-21T15:36:40.388Z,20.52
2023-04-21T15:39:14.181Z,20.50
2023-04-21T15:41:46.852Z,20.48
2023-04-21T15:44:19.194Z,20.44
2023-04-21T15:46:51.802Z,20.38
2023-04-21T15:49:26.022Z,20.35
2023-04-21T15:51:57.200Z,20.32
2023-04-21T15:54:29.652Z,20.24
2023-04-21T15:57:02.152Z,20.20
2023-04-21T15:59:34.522Z,20.13
2023-04-21T16:02:07.232Z,20.03
2023-04-21T16:04:40.233Z,19.90
2023-04-21T16:07:12.852Z,19.77
2023-04-21T16:09:45.288Z,19.68
2023-04-21T16:12:18.462Z,19.62
2023-04-21T16:14:57.606Z,19.55
2023-04-21T16:17:34.031Z,19.45
2023-04-21T16:20:07.190Z,19.35
2023-04-21T16:22:39.894Z,19.25
2023-04-21T16:25:14.456Z,19.20
2023-04-21T16:27:45.718Z,19.15
2023-04-21T16:30:18.367Z,19.09
2023-04-21T16:32:50.831Z,19.01
2023-04-21T16:35:23.221Z,18.96
2023-04-21T16:37:56.240Z,18.91
2023-04-21T16:40:28.827Z,18.87
2023-04-21T16:43:01.175Z,18.84
2023-04-21T16:45:33.655Z,18.82
2023-04-21T16:48:06.233Z,18.78
2023-04-21T16:50:38.759Z,18.75
2023-04-21T16:53:11.111Z,18.72
2023-04-21T16:55:43.394Z,18.66
2023-04-21T16:58:15.771Z,18.61
2023-04-21T17:00:48.307Z,18.56
2023-04-21T17:03:20.881Z,18.51
2023-04-21T17:05:53.340Z,18.46
2023-04-21T17:08:25.791Z,18.41
2023-04-21T17:10:59.072Z,18.37
2023-04-21T17:13:31.528Z,18.31
2023-04-21T17:16:03.950Z,18.27
2023-04-21T17:18:36.745Z,18.21
2023-04-21T17:21:09.169Z,18.16
2023-04-21T17:23:41.342Z,18.11
2023-04-21T17:26:13.724Z,18.06
2023-04-21T17:28:46.089Z,18.00
2023-04-21T17:31:18.998Z,17.94
2023-04-21T17:33:52.769Z,17.88
2023-04-21T17:36:25.754Z,17.83
2023-04-21T17:38:58.822Z,17.79
2023-04-21T17:41:31.074Z,17.75
2023-04-21T17:44:03.333Z,17.70
2023-04-21T17:46:36.009Z,17.63
2023-04-21T17:49:09.064Z,17.58
2023-04-21T17:51:41.650Z,17.51
2023-04-21T17:54:14.048Z,17.43
2023-04-21T17:56:46.689Z,17.37
2023-04-21T17:59:19.076Z,17.32
2023-04-21T18:01:51.589Z,17.22
2023-04-21T18:04:25.350Z,17.15
2023-04-21T18:06:59.106Z,17.10
2023-04-21T18:09:31.696Z,17.04
2023-04-21T18:12:04.139Z,16.98
2023-04-21T18:14:37.222Z,16.94
2023-04-21T18:17:10.077Z,16.90
2023-04-21T18:19:42.611Z,16.86
2023-04-21T18:22:14.917Z,16.81
2023-04-21T18:24:47.319Z,16.75
2023-04-21T18:27:19.744Z,16.70
2023-04-21T18:29:52.133Z,16.67
2023-04-21T18:32:24.589Z,16.63
2023-04-21T18:34:57.072Z,16.58
2023-04-21T18:37:29.578Z,16.54
2023-04-21T18:40:02.099Z,16.51
2023-04-21T18:42:34.695Z,16.45
2023-04-21T18:45:08.555Z,16.40
2023-04-21T18:47:40.832Z,16.38
2023-04-21T18:50:13.563Z,16.35
2023-04-21T18:52:45.925Z,16.31
2023-04-21T18:55:18.518Z,16.26
2023-04-21T18:57:50.901Z,16.21
2023-04-21T19:00:23.800Z,16.15
2023-04-21T19:02:56.484Z,16.13
2023-04-21T19:05:31.110Z,16.10
2023-04-21T19:08:04.142Z,16.05
2023-04-21T19:10:37.986Z,16.00
2023-04-21T19:13:11.636Z,15.98
2023-04-21T19:15:44.032Z,15.94
2023-04-21T19:18:16.440Z,15.91
2023-04-21T19:20:48.677Z,15.87
2023-04-21T19:23:20.983Z,15.85
2023-04-21T19:25:55.195Z,15.83
2023-04-21T19:28:27.856Z,15.85
2023-04-21T19:31:00.289Z,15.92
2023-04-21T19:33:32.939Z,15.94
2023-04-21T19:36:06.575Z,15.97
2023-04-21T19:38:39.012Z,15.96
2023-04-21T19:41:11.384Z,15.96
2023-04-21T19:43:43.714Z,15.97
2023-04-21T19:46:16.428Z,15.99
2023-04-21T19:48:49.855Z,15.98
2023-04-21T19:51:23.877Z,15.95
2023-04-21T19:54:10.029Z,15.96
2023-04-21T19:56:44.804Z,15.96
2023-04-21T19:59:17.433Z,15.96
2023-04-21T20:01:49.967Z,15.95
2023-04-21T20:04:22.623Z,15.93
2023-04-21T20:06:55.197Z,15.91
2023-04-21T20:09:27.873Z,15.90
2023-04-21T20:12:00.281Z,15.88
2023-04-21T20:14:32.552Z,15.85
2023-04-21T20:17:05.052Z,15.84
2023-04-21T20:19:40.551Z,15.82
2023-04-21T20:22:12.894Z,15.78
2023-04-21T20:24:45.966Z,15.75
2023-04-21T20:27:19.126Z,15.72
2023-04-21T20:29:51.521Z,15.71
2023-04-21T20:32:23.898Z,15.67
2023-04-21T20:34:56.418Z,15.63
2023-04-21T20:37:29.759Z,15.57
2023-04-21T20:40:04.550Z,15.53
2023-04-21T20:42:37.535Z,15.48
2023-04-21T20:45:11.225Z,15.45
2023-04-21T20:47:43.570Z,15.41
2023-04-21T20:50:16.105Z,15.35
2023-04-21T20:52:50.257Z,15.28
2023-04-21T20:55:22.622Z,15.25
2023-04-21T20:57:55.041Z,15.19
2023-04-21T21:00:27.412Z,15.17
2023-04-21T21:03:00.224Z,15.15
2023-04-21T21:05:34.208Z,15.12
2023-04-21T21:08:06.833Z,15.10
2023-04-21T21:10:39.366Z,15.09
2023-04-21T21:13:11.677Z,15.05
2023-04-21T21:15:44.015Z,15.02
2023-04-21T21:18:16.373Z,14.97
2023-04-21T21:20:48.663Z,14.93
2023-04-21T21:23:21.212Z,14.88
2023-04-21T21:25:53.562Z,14.84
2023-04-21T21:28:26.127Z,14.78
2023-04-21T21:30:58.478Z,14.69
2023-04-21T21:33:30.838Z,14.60
2023-04-21T21:36:03.243Z,14.51
2023-04-21T21:38:35.620Z,14.42
2023-04-21T21:41:10.394Z,14.35
2023-04-21T21:43:42.899Z,14.29
2023-04-21T21:46:15.409Z,14.24
2023-04-21T21:48:47.823Z,14.17
2023-04-21T21:51:20.385Z,14.12
2023-04-21T21:53:52.878Z,14.07
2023-04-21T21:56:26.026Z,14.03
2023-04-21T21:58:58.594Z,13.98
2023-04-21T22:01:31.313Z,13.94
2023-04-21T22:04:03.776Z,13.91
2023-04-21T22:06:36.312Z,13.87
2023-04-21T22:09:09.105Z,13.85
2023-04-21T22:11:41.610Z,13.83
2023-04-21T22:14:22.616Z,13.81
2023-04-21T22:16:57.437Z,13.76
2023-04-21T22:19:31.424Z,13.72
2023-04-21T22:22:03.935Z,13.68
2023-04-21T22:24:36.293Z,13.65
2023-04-21T22:27:08.608Z,13.60
2023-04-21T22:29:41.166Z,13.55
2023-04-21T22:32:13.787Z,13.51
2023-04-21T22:34:46.224Z,13.47
2023-04-21T22:37:18.527Z,13.45
2023-04-21T22:39:50.790Z,13.42
2023-04-21T22:42:23.143Z,13.39
2023-04-21T22:44:55.437Z,13.35
2023-04-21T22:47:27.789Z,13.33
2023-04-21T22:50:00.324Z,13.30
2023-04-21T22:52:33.160Z,13.26
2023-04-21T22:55:06.456Z,13.23
2023-04-21T22:57:39.176Z,13.19
2023-04-21T23:00:12.640Z,13.15
2023-04-21T23:02:45.077Z,13.13
2023-04-21T23:05:17.481Z,13.09
2023-04-21T23:07:49.726Z,13.04
2023-04-21T23:10:22.380Z,12.99
2023-04-21T23:12:54.789Z,12.95
2023-04-21T23:15:27.785Z,12.91
2023-04-21T23:18:00.140Z,12.87
2023-04-21T23:20:32.577Z,12.85
2023-04-21T23:23:04.935Z,12.81
2023-04-21T23:25:37.367Z,12.77
2023-04-21T23:28:09.753Z,12.73
2023-04-21T23:30:42.085Z,12.72
2023-04-21T23:33:14.529Z,12.71
2023-04-21T23:35:47.230Z,12.72
2023-04-21T23:38:19.495Z,12.70
2023-04-21T23:40:51.856Z,12.70
2023-04-21T23:43:24.246Z,12.69
2023-04-21T23:45:57.064Z,12.66
2023-04-21T23:48:29.268Z,12.61
2023-04-21T23:51:01.950Z,12.55
2023-04-21T23:53:34.276Z,12.49
2023-04-21T23:56:06.822Z,12.47
2023-04-21T23:58:39.062Z,12.47
